Pagrindinis puslapis
METAR-TAF:

METAR-TAF

Oro uostai :

Rafha, Saudo Arabija

platuma: 29-37N, ilguma: 043-29E, Aukštis: 449 m

Dabartinis oras

Ataskaita buvo paskelbta 53 minutes, ne 12:00 UTC
Vėjas 7 kt iš Vakarų
Temperatūra 22°C
Drėgmė 10%
Slėgis 1017 hPa
Matomumas 10 km arba daugiau
nėra debesų žemiau 1500 m ir nėra kamuolinių lietaus debesų

METAR: OERF 021200Z 26007KT CAVOK 22/M11 Q1017 NOSIG

Laikas: 15:53 (12:53 UTC)

Prognozė

Ataskaita buvo paskelbta 1 valandą ir 53 minutes, ne 11:00 UTC
Prognozė galioja nuo 02 metu 12 UTC su 03 metu 18 UTC
Vėjas 10 kt iš Šiaurės
Matomumas 10 km arba daugiau
nėra debesų žemiau 1500 m ir nėra kamuolinių lietaus debesų
Tapsmas
nuo 02 metu 20 UTC su 02 metu 22 UTC
Vėjas 10 kt iš Pietų

TAF: OERF 021100Z 0212/0318 35010KT CAVOK BECMG 0220/0222 19010KT

Orai ataskaitas ir orų prognozės (METAR, TAF).

turimą stotys yra geltonos ir raudonos taškus žemėlapyje.

Perkelti pele per norėdami pamatyti stoties vardą.

Tada spustelėkite, norėdami matyti oro stebėjimo ir prognozės.

Norėdami pakeisti žemėlapį: spustelėkite ant žalios mygtukų su juodo kryžiaus žemyn,; žalią mygtuką su brūkšneliu, jei norite nutolinti; arba žalių rodyklių gretimoms žemėlapius.


METAR-TAF: